Portada
METAR-TAF:

METAR-TAF

Aeropuertos :

Aeropuerto de Nijnévatorsk

Nizhnevartovsk, Rusia

latitud: 60-56N, longitud: 076-29E, altitud: 54 m

Observación

El informe se hizo hace 10 minutos, a las 15:30 UTC
Viento 4 kt del norte-noroeste
Temperatura 19°C
Humedad 73%
Presión 1003 hPa
Visibilidad 10 km o más
sin nubes por debajo de 1500 m y sin presencia de cumulonimbus.

METAR: USNN 231530Z 33002MPS CAVOK 19/14 Q1003 R03/0///65 NOSIG RMK QFE749

Hora: 20:40 (15:40 UTC)

Pronóstico

El informe se hizo hace 1 hora y 40 minutos, a las 14:00 UTC
Pronóstico válido del 23 a las 15 UTC al 24 a las 15 UTC
Viento 6 kt del norte-noroeste con ráfagas de 16 kt
Visibilidad 10 km o más
Cielo nuboso a una altura de 3000 ft
Temporalmente
del 23 a las 12 UTC al 23 a las 20 UTC
Visibilidad: 3100 m
Nubes dispersas a una altura de 1100 ft
neblina, humo

TAF: USNN 231400Z 2315/2415 33003G08MPS 9999 BKN030 TEMPO 2312/2320 3100 BR FU SCT011

Observaciones y pronósticos meteorológicos de más de 4000 aeropuertos (mensajes METAR y TAF).

Los puntos amarillos y rojos representan las estaciones disponibles.

Ponga el ratón en el punto deseado para ver el nombre de la estación.

Haga clic para ver las observaciones y los pronósticos meteorológicos.

Para cambiar el mapa : haga clic en los botones verdes con una cruz de color negro para hacer un zoom, en el botón verde con un guión para alejar o en las flechas verdes para mapas adyacentes.


METAR-TAF: